createdAt,value
2018-07-09T00:00:05.190Z,68.66
2018-07-09T00:01:05.706Z,68.27
2018-07-09T00:02:05.521Z,68.46
2018-07-09T00:03:05.984Z,68.66
2018-07-09T00:04:06.103Z,68.66
2018-07-09T00:05:06.332Z,68.46
2018-07-09T00:06:06.449Z,68.85
2018-07-09T00:07:06.634Z,68.95
2018-07-09T00:08:06.833Z,69.42
2018-07-09T00:09:07.098Z,69.23
2018-07-09T00:10:07.114Z,69.71
2018-07-09T00:11:07.289Z,70.19
2018-07-09T00:12:07.722Z,69.81
2018-07-09T00:13:07.690Z,70.38
2018-07-09T00:14:07.882Z,70.38
2018-07-09T00:15:08.042Z,70.29
2018-07-09T00:16:08.281Z,70.67
2018-07-09T00:17:08.486Z,70.48
2018-07-09T00:18:08.632Z,70.64
2018-07-09T00:19:08.759Z,71.02
2018-07-09T00:20:08.861Z,71.02
2018-07-09T00:21:09.044Z,70.83
2018-07-09T00:22:09.218Z,70.73
2018-07-09T00:23:09.247Z,70.86
2018-07-09T00:24:09.351Z,70.83
2018-07-09T00:25:09.538Z,71.21
2018-07-09T00:26:09.840Z,71.40
2018-07-09T00:27:09.878Z,71.78
2018-07-09T00:28:09.875Z,71.88
2018-07-09T00:29:10.062Z,71.69
2018-07-09T00:30:10.239Z,71.59
2018-07-09T00:31:10.427Z,71.69
2018-07-09T00:32:10.640Z,72.45
2018-07-09T00:33:10.792Z,72.27
2018-07-09T00:34:10.978Z,72.42
2018-07-09T00:35:11.165Z,71.94
2018-07-09T00:36:11.352Z,72.52
2018-07-09T00:37:11.543Z,72.32
2018-07-09T00:38:11.725Z,72.32
2018-07-09T00:39:11.905Z,72.32
2018-07-09T00:40:12.081Z,72.42
2018-07-09T00:41:12.260Z,72.61
2018-07-09T00:42:12.446Z,72.61
2018-07-09T00:43:12.626Z,72.90
2018-07-09T00:44:12.809Z,73.28
2018-07-09T00:45:12.982Z,72.90
2018-07-09T00:46:13.165Z,73.09
2018-07-09T00:47:13.347Z,72.90
2018-07-09T00:48:13.535Z,72.99
2018-07-09T00:49:13.714Z,72.71
2018-07-09T00:50:13.896Z,72.80
2018-07-09T00:51:14.079Z,72.99
2018-07-09T00:52:14.262Z,72.90
2018-07-09T00:53:14.436Z,72.99
2018-07-09T00:54:14.614Z,72.90
2018-07-09T00:55:14.798Z,72.80
2018-07-09T00:56:14.969Z,72.90
2018-07-09T00:57:15.153Z,72.71
2018-07-09T00:58:15.330Z,72.71
2018-07-09T00:59:15.522Z,72.90
2018-07-09T01:00:15.693Z,73.09
2018-07-09T01:01:15.881Z,73.57
2018-07-09T01:02:16.066Z,73.19
2018-07-09T01:03:16.239Z,73.09
2018-07-09T01:04:16.414Z,73.09
2018-07-09T01:05:16.591Z,73.47
2018-07-09T01:06:16.779Z,73.57
2018-07-09T01:07:16.954Z,74.05
2018-07-09T01:08:17.129Z,73.86
2018-07-09T01:09:17.312Z,74.05
2018-07-09T01:10:17.499Z,73.72
2018-07-09T01:11:17.677Z,73.91
2018-07-09T01:12:17.861Z,73.63
2018-07-09T01:13:18.044Z,74.40
2018-07-09T01:14:18.233Z,74.97
2018-07-09T01:15:18.413Z,74.87
2018-07-09T01:16:18.590Z,74.97
2018-07-09T01:17:18.771Z,74.68
2018-07-09T01:18:18.958Z,74.58
2018-07-09T01:19:19.143Z,74.58
2018-07-09T01:20:19.338Z,74.68
2018-07-09T01:21:19.500Z,74.58
2018-07-09T01:22:19.680Z,74.82
2018-07-09T01:23:19.858Z,74.91
2018-07-09T01:24:20.038Z,74.43
2018-07-09T01:25:20.214Z,74.33
2018-07-09T01:26:20.401Z,74.05
2018-07-09T01:27:20.585Z,74.15
2018-07-09T01:28:20.768Z,74.33
2018-07-09T01:29:20.955Z,74.43
2018-07-09T01:30:21.133Z,74.30
2018-07-09T01:31:21.314Z,74.30
2018-07-09T01:32:21.504Z,74.11
2018-07-09T01:33:21.688Z,74.97
2018-07-09T01:34:21.876Z,74.97
2018-07-09T01:35:22.058Z,75.26
2018-07-09T01:36:22.242Z,75.26
2018-07-09T01:37:22.422Z,75.45
2018-07-09T01:38:22.607Z,75.45
2018-07-09T01:39:22.794Z,75.64
2018-07-09T01:40:22.971Z,75.64
2018-07-09T01:41:23.151Z,75.64
2018-07-09T01:42:23.324Z,75.54
2018-07-09T01:43:23.499Z,76.02
2018-07-09T01:44:23.676Z,75.89
2018-07-09T01:45:23.866Z,76.12
2018-07-09T01:46:24.037Z,76.18
2018-07-09T01:47:24.225Z,76.08
2018-07-09T01:48:24.400Z,76.08
2018-07-09T01:49:24.577Z,76.37
2018-07-09T01:50:24.758Z,76.37
2018-07-09T01:51:24.932Z,76.08
2018-07-09T01:52:25.113Z,76.94
2018-07-09T01:53:25.292Z,76.65
2018-07-09T01:54:25.471Z,76.84
2018-07-09T01:55:25.655Z,76.56
2018-07-09T01:56:25.832Z,76.75
2018-07-09T01:57:26.013Z,77.04
2018-07-09T01:58:26.181Z,77.23
2018-07-09T01:59:26.363Z,77.04
2018-07-09T02:00:26.543Z,77.33
2018-07-09T02:01:26.729Z,77.13
2018-07-09T02:02:26.913Z,76.94
2018-07-09T02:03:27.088Z,77.04
2018-07-09T02:04:27.264Z,77.33
2018-07-09T02:05:27.459Z,77.51
2018-07-09T02:06:27.636Z,77.61
2018-07-09T02:07:27.816Z,77.67
2018-07-09T02:08:27.997Z,77.80
2018-07-09T02:09:28.173Z,77.70
2018-07-09T02:10:28.355Z,77.70
2018-07-09T02:11:28.529Z,77.70
2018-07-09T02:12:28.732Z,77.70
2018-07-09T02:13:28.907Z,77.80
2018-07-09T02:14:29.092Z,77.70
2018-07-09T02:15:29.266Z,77.61
2018-07-09T02:16:29.444Z,77.70
2018-07-09T02:17:29.620Z,77.99
2018-07-09T02:18:29.799Z,78.19
2018-07-09T02:19:29.976Z,78.14
2018-07-09T02:20:30.163Z,78.14
2018-07-09T02:21:30.327Z,78.34
2018-07-09T02:22:30.500Z,78.43
2018-07-09T02:23:30.681Z,78.47
2018-07-09T02:24:30.860Z,78.34
2018-07-09T02:25:31.074Z,78.34
2018-07-09T02:26:31.258Z,78.72
2018-07-09T02:27:31.434Z,78.24
2018-07-09T02:28:31.625Z,78.72
2018-07-09T02:29:31.800Z,78.72
2018-07-09T02:30:31.971Z,78.91
2018-07-09T02:31:32.159Z,78.81
2018-07-09T02:32:32.332Z,78.72
2018-07-09T02:33:32.519Z,79.49
2018-07-09T02:34:32.699Z,79.10
2018-07-09T02:35:32.879Z,79.10
2018-07-09T02:36:33.054Z,79.68
2018-07-09T02:37:33.233Z,79.58
2018-07-09T02:38:33.411Z,79.87
2018-07-09T02:39:33.592Z,79.87
2018-07-09T02:40:33.774Z,79.10
2018-07-09T02:41:33.951Z,78.91
2018-07-09T02:42:34.149Z,79.10
2018-07-09T02:43:34.319Z,79.20
2018-07-09T02:44:34.500Z,79.77
2018-07-09T02:45:34.683Z,79.87
2018-07-09T02:46:34.869Z,79.58
2018-07-09T02:47:35.040Z,80.06
2018-07-09T02:48:35.211Z,79.96
2018-07-09T02:49:35.390Z,79.68
2018-07-09T02:50:35.566Z,79.87
2018-07-09T02:51:35.752Z,80.06
2018-07-09T02:52:35.939Z,79.96
2018-07-09T02:53:36.121Z,79.54
2018-07-09T02:54:36.296Z,79.77
2018-07-09T02:55:36.479Z,80.30
2018-07-09T02:56:36.652Z,80.69
2018-07-09T02:57:36.837Z,80.59
2018-07-09T02:58:37.016Z,80.40
2018-07-09T02:59:37.191Z,80.50
2018-07-09T03:00:37.377Z,80.69
2018-07-09T03:01:37.554Z,80.59
2018-07-09T03:02:37.737Z,80.69
2018-07-09T03:03:37.906Z,80.40
2018-07-09T03:04:38.091Z,80.40
2018-07-09T03:05:38.264Z,80.40
2018-07-09T03:06:38.444Z,80.50
2018-07-09T03:07:38.627Z,80.59
2018-07-09T03:08:38.798Z,80.50
2018-07-09T03:09:38.981Z,80.50
2018-07-09T03:10:39.182Z,80.50
2018-07-09T03:11:39.349Z,81.16
2018-07-09T03:12:39.528Z,81.36
2018-07-09T03:13:39.708Z,80.88
2018-07-09T03:14:39.891Z,81.36
2018-07-09T03:15:40.070Z,81.45
2018-07-09T03:16:40.263Z,81.45
2018-07-09T03:17:40.433Z,81.45
2018-07-09T03:18:40.614Z,81.45
2018-07-09T03:19:40.793Z,81.36
2018-07-09T03:20:40.968Z,81.65
2018-07-09T03:21:41.151Z,81.55
2018-07-09T03:22:41.333Z,81.45
2018-07-09T03:23:41.524Z,80.98
2018-07-09T03:24:41.695Z,81.26
2018-07-09T03:25:41.876Z,81.55
2018-07-09T03:26:42.057Z,81.45
2018-07-09T03:27:42.239Z,81.16
2018-07-09T03:28:42.416Z,81.55
2018-07-09T03:29:42.605Z,81.16
2018-07-09T03:30:42.768Z,81.26
2018-07-09T03:31:42.944Z,81.36
2018-07-09T03:32:43.128Z,81.16
2018-07-09T03:33:43.303Z,81.36
2018-07-09T03:34:43.476Z,81.16
2018-07-09T03:35:43.662Z,81.16
2018-07-09T03:36:43.840Z,81.16
2018-07-09T03:37:44.016Z,81.26
2018-07-09T03:38:44.201Z,81.16
2018-07-09T03:39:44.384Z,81.26
2018-07-09T03:40:44.569Z,81.36
2018-07-09T03:41:44.751Z,81.26
2018-07-09T03:42:44.925Z,81.74
2018-07-09T03:43:45.105Z,81.55
2018-07-09T03:44:45.295Z,81.84
2018-07-09T03:45:45.485Z,81.74
2018-07-09T03:46:45.660Z,81.84
2018-07-09T03:47:45.837Z,81.84
2018-07-09T03:48:46.013Z,81.84
2018-07-09T03:49:46.190Z,81.65
2018-07-09T03:50:46.371Z,82.03
2018-07-09T03:51:46.544Z,81.84
2018-07-09T03:52:46.731Z,81.84
2018-07-09T03:53:46.912Z,81.45
2018-07-09T03:54:47.086Z,81.84
2018-07-09T03:55:47.272Z,81.93
2018-07-09T03:56:47.452Z,82.03
2018-07-09T03:57:47.625Z,81.65
2018-07-09T03:58:47.802Z,82.22
2018-07-09T03:59:47.983Z,81.84
2018-07-09T04:00:48.161Z,81.93
2018-07-09T04:01:48.349Z,81.93
2018-07-09T04:02:53.534Z,82.41
2018-07-09T04:03:48.634Z,82.03
2018-07-09T04:04:48.813Z,82.31
2018-07-09T04:05:49.001Z,82.41
2018-07-09T04:06:50.555Z,81.84
2018-07-09T04:07:51.110Z,81.65
2018-07-09T04:08:49.417Z,81.84
2018-07-09T04:09:49.608Z,81.65
2018-07-09T04:10:49.795Z,81.36
2018-07-09T04:11:49.971Z,81.45
2018-07-09T04:12:50.146Z,81.55
2018-07-09T04:13:50.323Z,81.55
2018-07-09T04:14:50.577Z,81.07
2018-07-09T04:15:50.713Z,81.26
2018-07-09T04:16:50.888Z,81.40
2018-07-09T04:17:51.075Z,81.02
2018-07-09T04:18:51.250Z,81.16
2018-07-09T04:19:51.426Z,81.16
2018-07-09T04:20:51.615Z,80.98
2018-07-09T04:21:51.783Z,81.26
2018-07-09T04:22:51.973Z,81.36
2018-07-09T04:23:52.150Z,81.36
2018-07-09T04:24:52.555Z,81.21
2018-07-09T04:25:52.765Z,80.82
2018-07-09T04:26:52.724Z,80.92
2018-07-09T04:27:53.185Z,81.02
2018-07-09T04:28:53.118Z,81.02
2018-07-09T04:29:53.407Z,80.63
2018-07-09T04:30:53.468Z,80.63
2018-07-09T04:31:53.433Z,80.44
2018-07-09T04:32:53.608Z,80.63
2018-07-09T04:33:53.789Z,80.16
2018-07-09T04:34:54.004Z,79.96
2018-07-09T04:35:54.163Z,80.44
2018-07-09T04:36:54.334Z,80.54
2018-07-09T04:37:54.540Z,80.35
2018-07-09T04:38:54.690Z,80.06
2018-07-09T04:39:54.862Z,80.06
2018-07-09T04:40:55.072Z,80.16
2018-07-09T04:41:55.228Z,80.35
2018-07-09T04:42:55.416Z,80.82
2018-07-09T04:43:55.593Z,81.11
2018-07-09T04:44:55.770Z,81.26
2018-07-09T04:45:55.957Z,81.36
2018-07-09T04:46:56.372Z,81.16
2018-07-09T04:47:56.691Z,81.59
2018-07-09T04:48:56.772Z,81.21
2018-07-09T04:49:57.035Z,80.54
2018-07-09T04:50:56.851Z,80.35
2018-07-09T04:51:57.224Z,80.16
2018-07-09T04:53:00.348Z,79.96
2018-07-09T04:53:57.347Z,80.16
2018-07-09T04:54:57.535Z,79.77
2018-07-09T04:55:57.711Z,80.06
2018-07-09T04:56:57.888Z,79.77
2018-07-09T04:57:58.059Z,79.68
2018-07-09T04:58:58.239Z,79.77
2018-07-09T04:59:58.513Z,79.29
2018-07-09T05:00:58.574Z,79.77
2018-07-09T05:01:58.749Z,79.33
2018-07-09T05:02:58.931Z,79.52
2018-07-09T05:04:00.348Z,79.33
2018-07-09T05:05:00.804Z,79.24
2018-07-09T05:06:01.662Z,78.76
2018-07-09T05:06:59.604Z,78.66
2018-07-09T05:07:59.792Z,78.03
2018-07-09T05:08:59.977Z,77.94
2018-07-09T05:10:00.178Z,77.17
2018-07-09T05:11:01.322Z,77.17
2018-07-09T05:12:00.509Z,76.73
2018-07-09T05:13:00.742Z,77.02
2018-07-09T05:14:00.907Z,76.25
2018-07-09T05:15:01.217Z,76.15
2018-07-09T05:16:01.250Z,75.20
2018-07-09T05:17:01.433Z,75.20
2018-07-09T05:18:01.620Z,74.85
2018-07-09T05:19:01.807Z,74.95
2018-07-09T05:20:02.160Z,74.85
2018-07-09T05:21:02.138Z,74.47
2018-07-09T05:22:02.320Z,73.61
2018-07-09T05:23:02.845Z,73.80
2018-07-09T05:24:03.036Z,73.03
2018-07-09T05:25:03.127Z,73.32
2018-07-09T05:26:03.241Z,73.07
2018-07-09T05:27:03.369Z,72.78
2018-07-09T05:28:03.181Z,72.30
2018-07-09T05:29:03.362Z,72.59
2018-07-09T05:30:03.539Z,72.20
2018-07-09T05:31:03.726Z,72.11
2018-07-09T05:32:03.904Z,72.39
2018-07-09T05:33:04.085Z,71.76
2018-07-09T05:34:04.325Z,70.99
2018-07-09T05:35:04.469Z,70.90
2018-07-09T05:36:04.646Z,71.28
2018-07-09T05:37:04.841Z,70.42
2018-07-09T05:38:05.021Z,70.61
2018-07-09T05:39:05.214Z,69.84
2018-07-09T05:40:05.395Z,69.26
2018-07-09T05:41:05.562Z,69.01
2018-07-09T05:42:05.761Z,68.91
2018-07-09T05:43:05.940Z,68.63
2018-07-09T05:44:06.124Z,68.63
2018-07-09T05:45:06.308Z,68.63
2018-07-09T05:46:06.492Z,68.53
2018-07-09T05:47:06.667Z,68.53
2018-07-09T05:48:06.858Z,68.08
2018-07-09T05:49:07.035Z,67.61
2018-07-09T05:50:07.214Z,67.51
2018-07-09T05:51:07.405Z,67.61
2018-07-09T05:52:07.569Z,67.90
2018-07-09T05:53:07.754Z,67.61
2018-07-09T05:54:07.944Z,67.16
2018-07-09T05:55:08.122Z,67.07
2018-07-09T05:56:08.299Z,66.39
2018-07-09T05:57:08.483Z,65.81
2018-07-09T05:58:08.665Z,65.72
2018-07-09T05:59:08.854Z,65.53
2018-07-09T06:00:09.035Z,65.43
2018-07-09T06:01:09.216Z,65.08
2018-07-09T06:02:09.513Z,64.98
2018-07-09T06:03:09.589Z,64.79
2018-07-09T06:04:09.770Z,63.92
2018-07-09T06:05:09.986Z,63.73
2018-07-09T06:06:10.176Z,63.86
2018-07-09T06:07:10.353Z,63.76
2018-07-09T06:08:10.532Z,63.38
2018-07-09T06:09:10.733Z,62.51
2018-07-09T06:10:10.919Z,62.32
2018-07-09T06:11:11.156Z,62.16
2018-07-09T06:12:11.290Z,62.16
2018-07-09T06:13:11.462Z,61.00
2018-07-09T06:14:12.346Z,61.49
2018-07-09T06:15:11.789Z,61.49
2018-07-09T06:16:11.948Z,61.49
2018-07-09T06:17:12.155Z,61.58
2018-07-09T06:18:12.336Z,61.39
2018-07-09T06:19:12.642Z,60.27
2018-07-09T06:20:12.636Z,59.97
2018-07-09T06:21:12.886Z,59.97
2018-07-09T06:22:13.853Z,59.81
2018-07-09T06:23:13.166Z,58.37
2018-07-09T06:24:13.349Z,58.27
2018-07-09T06:25:13.583Z,57.21
2018-07-09T06:26:13.765Z,56.37
2018-07-09T06:27:14.069Z,56.76
2018-07-09T06:28:14.476Z,55.05
2018-07-09T06:29:14.575Z,54.11
2018-07-09T06:30:14.532Z,53.27
2018-07-09T06:31:14.723Z,53.30
2018-07-09T06:32:15.023Z,52.53
2018-07-09T06:33:15.216Z,52.17
2018-07-09T06:34:15.287Z,51.20
2018-07-09T06:35:15.970Z,49.97
2018-07-09T06:36:15.708Z,49.68
2018-07-09T06:37:15.934Z,48.90
2018-07-09T06:38:16.117Z,48.32
2018-07-09T06:39:16.306Z,47.21
2018-07-09T06:40:16.508Z,46.53
2018-07-09T06:41:16.699Z,46.83
2018-07-09T06:42:16.885Z,47.09
2018-07-09T06:43:17.075Z,47.28
2018-07-09T06:44:17.278Z,48.23
2018-07-09T06:45:17.457Z,47.28
2018-07-09T06:46:17.646Z,48.13
2018-07-09T06:47:17.865Z,48.23
2018-07-09T06:48:18.089Z,47.94
2018-07-09T06:49:18.247Z,48.97
2018-07-09T06:50:18.442Z,49.17
2018-07-09T06:51:18.628Z,48.59
2018-07-09T06:52:19.130Z,48.90
2018-07-09T06:53:19.512Z,47.24
2018-07-09T06:54:19.487Z,44.98
2018-07-09T06:55:19.624Z,43.10
2018-07-09T06:56:19.812Z,41.08
2018-07-09T06:57:20.086Z,40.31
2018-07-09T06:58:20.264Z,40.21
2018-07-09T06:59:20.347Z,41.88
2018-07-09T07:00:20.496Z,43.41
2018-07-09T07:01:20.831Z,43.33
2018-07-09T07:02:22.141Z,41.47
2018-07-09T07:03:20.962Z,39.47
2018-07-09T07:04:21.108Z,38.73
2018-07-09T07:05:21.317Z,36.53
2018-07-09T07:06:21.586Z,35.69
2018-07-09T07:07:21.700Z,34.92
2018-07-09T07:08:21.779Z,34.45
2018-07-09T07:09:21.790Z,33.69
2018-07-09T07:10:22.325Z,32.73
2018-07-09T07:11:22.234Z,31.96
2018-07-09T07:12:22.425Z,31.31
2018-07-09T07:13:22.520Z,30.54
2018-07-09T07:14:22.656Z,30.74
2018-07-09T07:15:22.831Z,30.16
2018-07-09T07:16:23.004Z,30.32
2018-07-09T07:17:22.979Z,31.20
2018-07-09T07:18:23.485Z,31.18
2018-07-09T07:19:23.570Z,30.80
2018-07-09T07:20:24.007Z,30.91
2018-07-09T07:21:23.945Z,30.74
2018-07-09T07:22:24.138Z,30.62
2018-07-09T07:23:24.238Z,29.87
2018-07-09T07:24:24.547Z,29.88
2018-07-09T07:25:26.180Z,28.99
2018-07-09T07:26:24.988Z,28.51
2018-07-09T07:27:25.114Z,27.87
2018-07-09T07:28:25.312Z,27.78
2018-07-09T07:29:25.466Z,27.69
2018-07-09T07:30:25.689Z,27.39
2018-07-09T07:31:26.346Z,27.22
2018-07-09T07:32:25.799Z,27.08
2018-07-09T07:33:28.857Z,27.20
2018-07-09T07:34:26.430Z,26.54
2018-07-09T07:35:26.452Z,25.77
2018-07-09T07:36:26.448Z,25.38
2018-07-09T07:37:26.872Z,25.46
2018-07-09T07:38:27.102Z,25.29
2018-07-09T07:39:27.163Z,24.44
2018-07-09T07:40:27.441Z,24.26
2018-07-09T07:41:27.661Z,23.07
2018-07-09T07:42:28.039Z,22.81
2018-07-09T07:43:28.028Z,22.02
2018-07-09T07:44:28.118Z,22.69
2018-07-09T07:45:28.470Z,22.60
2018-07-09T07:46:28.797Z,22.12
2018-07-09T07:47:28.667Z,22.59
2018-07-09T07:48:29.052Z,22.12
2018-07-09T07:49:29.191Z,21.94
2018-07-09T07:50:29.603Z,21.73
2018-07-09T07:51:29.592Z,22.58
2018-07-09T07:52:29.855Z,23.07
2018-07-09T07:53:29.958Z,22.59
2018-07-09T07:54:30.082Z,22.41
2018-07-09T07:55:30.404Z,22.22
2018-07-09T07:56:30.206Z,21.45
2018-07-09T07:57:30.441Z,20.78
2018-07-09T07:58:30.694Z,20.48
2018-07-09T07:59:31.041Z,20.00
2018-07-09T08:00:31.179Z,19.42
2018-07-09T08:01:31.352Z,19.90
2018-07-09T08:02:31.737Z,19.81
2018-07-09T08:03:31.784Z,20.00
2018-07-09T08:04:32.071Z,19.89
2018-07-09T08:05:32.345Z,19.79
2018-07-09T08:06:33.155Z,19.01
2018-07-09T08:07:33.092Z,18.52
2018-07-09T08:08:33.233Z,18.52
2018-07-09T08:09:33.326Z,18.63
2018-07-09T08:10:33.311Z,19.01
2018-07-09T08:11:48.563Z,18.52
2018-07-09T08:13:13.743Z,18.73
2018-07-09T08:13:33.995Z,18.42
2018-07-09T08:14:33.967Z,18.82
2018-07-09T08:15:34.668Z,18.52
2018-07-09T08:16:36.817Z,18.52
2018-07-09T08:17:34.467Z,18.43
2018-07-09T08:18:35.059Z,18.03
2018-07-09T08:19:35.025Z,18.23
2018-07-09T08:20:35.852Z,18.04
2018-07-09T08:21:35.288Z,18.14
2018-07-09T08:22:35.439Z,17.84
2018-07-09T08:23:35.535Z,17.54
2018-07-09T08:24:35.821Z,16.97
2018-07-09T08:25:36.443Z,17.04
2018-07-09T08:26:35.837Z,17.73
2018-07-09T08:27:36.164Z,17.53
2018-07-09T08:28:36.345Z,17.73
2018-07-09T08:29:36.767Z,18.50
2018-07-09T08:30:36.835Z,18.31
2018-07-09T08:31:36.745Z,17.93
2018-07-09T08:32:37.314Z,18.32
2018-07-09T08:33:37.049Z,17.73
2018-07-09T08:34:37.207Z,17.24
2018-07-09T08:35:37.278Z,17.93
2018-07-09T08:36:37.466Z,18.12
2018-07-09T08:37:37.593Z,18.71
2018-07-09T08:38:37.468Z,18.99
2018-07-09T08:39:37.671Z,18.80
2018-07-09T08:40:37.869Z,18.43
2018-07-09T08:41:38.070Z,17.14
2018-07-09T08:42:38.296Z,17.35
2018-07-09T08:43:38.495Z,17.63
2018-07-09T08:44:38.766Z,17.35
2018-07-09T08:45:38.943Z,17.14
2018-07-09T08:46:39.233Z,17.25
2018-07-09T08:47:39.286Z,16.76
2018-07-09T08:48:39.741Z,18.48
2018-07-09T08:49:39.591Z,18.98
2018-07-09T08:50:39.789Z,18.29
2018-07-09T08:51:40.011Z,17.99
2018-07-09T08:52:40.186Z,17.99
2018-07-09T08:53:40.384Z,17.02
2018-07-09T08:54:40.580Z,17.22
2018-07-09T08:55:40.773Z,17.03
2018-07-09T08:56:40.966Z,17.59
2018-07-09T08:57:41.165Z,17.80
2018-07-09T08:58:41.377Z,17.80
2018-07-09T08:59:41.570Z,18.65
2018-07-09T09:00:41.763Z,18.76
2018-07-09T09:01:42.032Z,18.56
2018-07-09T09:02:42.110Z,18.86
2018-07-09T09:03:42.419Z,18.95
2018-07-09T09:04:42.526Z,18.95
2018-07-09T09:05:42.725Z,18.44
2018-07-09T09:06:42.994Z,18.35
2018-07-09T09:07:43.169Z,18.74
2018-07-09T09:08:43.280Z,18.15
2018-07-09T09:09:43.466Z,17.86
2018-07-09T09:10:43.677Z,17.19
2018-07-09T09:11:43.883Z,17.00
2018-07-09T09:12:44.081Z,17.00
2018-07-09T09:13:44.281Z,17.40
2018-07-09T09:14:44.486Z,18.08
2018-07-09T09:15:44.676Z,17.30
2018-07-09T09:16:44.892Z,17.59
2018-07-09T09:17:45.086Z,17.40
2018-07-09T09:18:45.276Z,17.02
2018-07-09T09:19:45.475Z,17.02
2018-07-09T09:20:45.680Z,16.31
2018-07-09T09:21:45.883Z,16.22
2018-07-09T09:22:46.110Z,15.44
2018-07-09T09:23:46.333Z,15.91
2018-07-09T09:24:46.558Z,16.00
2018-07-09T09:25:46.639Z,16.10
2018-07-09T09:26:46.859Z,15.81
2018-07-09T09:27:47.038Z,14.93
2018-07-09T09:28:47.245Z,15.13
2018-07-09T09:29:47.428Z,15.31
2018-07-09T09:30:47.636Z,16.38
2018-07-09T09:31:47.875Z,16.29
2018-07-09T09:32:48.084Z,15.78
2018-07-09T09:33:48.299Z,16.19
2018-07-09T09:34:48.498Z,16.09
2018-07-09T09:35:48.693Z,15.60
2018-07-09T09:36:49.661Z,14.62
2018-07-09T09:37:55.888Z,14.92
2018-07-09T09:38:49.816Z,14.39
2018-07-09T09:39:50.463Z,15.84
2018-07-09T09:40:49.916Z,13.68
2018-07-09T09:41:50.252Z,14.18
2018-07-09T09:42:49.939Z,12.90
2018-07-09T09:43:50.294Z,12.51
2018-07-09T09:44:50.540Z,13.20
2018-07-09T09:45:50.695Z,12.04
2018-07-09T09:46:53.981Z,12.04
2018-07-09T09:47:50.944Z,12.14
2018-07-09T09:48:51.157Z,12.13
2018-07-09T09:49:51.356Z,12.43
2018-07-09T09:50:51.809Z,12.24
2018-07-09T09:51:51.807Z,12.91
2018-07-09T09:52:51.830Z,13.00
2018-07-09T09:53:52.043Z,11.83
2018-07-09T09:54:52.233Z,11.62
2018-07-09T09:55:52.423Z,12.02
2018-07-09T09:56:52.620Z,11.93
2018-07-09T09:57:52.839Z,11.83
2018-07-09T09:58:53.022Z,12.32
2018-07-09T09:59:53.225Z,13.60
2018-07-09T10:00:53.423Z,13.70
2018-07-09T10:01:53.608Z,13.46
2018-07-09T10:02:53.833Z,13.93
2018-07-09T10:03:54.061Z,15.40
2018-07-09T10:04:54.264Z,14.32
2018-07-09T10:05:54.452Z,14.32
2018-07-09T10:06:54.646Z,14.81
2018-07-09T10:07:54.841Z,14.62
2018-07-09T10:08:55.043Z,14.91
2018-07-09T10:09:55.233Z,15.10
2018-07-09T10:10:55.442Z,15.77
2018-07-09T10:11:55.667Z,17.32
2018-07-09T10:12:55.870Z,17.19
2018-07-09T10:13:56.067Z,17.79
2018-07-09T10:14:56.276Z,17.70
2018-07-09T10:15:56.463Z,18.09
2018-07-09T10:16:56.770Z,17.99
2018-07-09T10:17:56.796Z,17.68
2018-07-09T10:18:56.974Z,17.69
2018-07-09T10:19:57.167Z,18.57
2018-07-09T10:20:57.372Z,18.85
2018-07-09T10:21:57.570Z,19.73
2018-07-09T10:22:57.874Z,19.82
2018-07-09T10:23:57.958Z,19.70
2018-07-09T10:24:58.250Z,19.70
2018-07-09T10:25:58.307Z,20.28
2018-07-09T10:26:58.516Z,20.38
2018-07-09T10:27:58.710Z,20.17
2018-07-09T10:28:58.912Z,20.18
2018-07-09T10:29:59.151Z,19.70
2018-07-09T10:30:59.325Z,20.38
2018-07-09T10:31:59.516Z,21.73
2018-07-09T10:32:59.717Z,21.54
2018-07-09T10:33:59.914Z,22.31
2018-07-09T10:35:00.103Z,21.73
2018-07-09T10:36:00.306Z,21.32
2018-07-09T10:37:00.523Z,21.72
2018-07-09T10:38:00.689Z,21.71
2018-07-09T10:39:00.883Z,21.62
2018-07-09T10:40:01.140Z,22.02
2018-07-09T10:41:01.280Z,21.92
2018-07-09T10:42:01.469Z,21.51
2018-07-09T10:43:01.650Z,22.77
2018-07-09T10:44:01.845Z,22.69
2018-07-09T10:45:02.034Z,22.49
2018-07-09T10:46:02.229Z,22.39
2018-07-09T10:47:02.473Z,22.58
2018-07-09T10:48:02.611Z,22.67
2018-07-09T10:49:02.808Z,22.87
2018-07-09T10:50:02.998Z,23.27
2018-07-09T10:51:03.195Z,23.27
2018-07-09T10:52:03.382Z,22.59
2018-07-09T10:53:03.583Z,22.67
2018-07-09T10:54:03.766Z,22.77
2018-07-09T10:55:03.987Z,23.25
2018-07-09T10:56:04.141Z,23.44
2018-07-09T10:57:04.325Z,22.96
2018-07-09T10:58:04.520Z,23.83
2018-07-09T10:59:04.708Z,24.22
2018-07-09T11:00:04.908Z,24.52
2018-07-09T11:01:05.104Z,25.10
2018-07-09T11:02:05.286Z,25.10
2018-07-09T11:03:05.471Z,25.41
2018-07-09T11:04:05.662Z,25.03
2018-07-09T11:05:05.845Z,24.63
2018-07-09T11:06:06.044Z,24.54
2018-07-09T11:07:06.631Z,24.05
2018-07-09T11:08:06.448Z,25.12
2018-07-09T11:09:08.825Z,25.10
2018-07-09T11:10:06.996Z,25.21
2018-07-09T11:11:07.240Z,25.31
2018-07-09T11:12:07.213Z,25.60
2018-07-09T11:13:07.403Z,25.12
2018-07-09T11:14:07.634Z,24.73
2018-07-09T11:15:09.986Z,24.73
2018-07-09T11:16:10.321Z,24.06
2018-07-09T11:17:08.183Z,23.77
2018-07-09T11:18:08.333Z,23.95
2018-07-09T11:19:08.479Z,24.24
2018-07-09T11:20:08.721Z,23.96
2018-07-09T11:21:08.938Z,24.06
2018-07-09T11:22:09.045Z,24.45
2018-07-09T11:23:13.175Z,24.35
2018-07-09T11:24:09.417Z,24.76
2018-07-09T11:25:10.391Z,24.95
2018-07-09T11:26:09.693Z,25.03
2018-07-09T11:27:10.043Z,25.42
2018-07-09T11:28:10.097Z,25.70
2018-07-09T11:29:10.422Z,26.09
2018-07-09T11:30:10.509Z,26.58
2018-07-09T11:31:10.686Z,26.48
2018-07-09T11:32:11.156Z,26.47
2018-07-09T11:33:11.063Z,27.06
2018-07-09T11:34:11.691Z,27.05
2018-07-09T11:35:11.877Z,26.97
2018-07-09T11:36:11.953Z,26.39
2018-07-09T11:37:13.222Z,26.98
2018-07-09T11:38:13.491Z,26.69
2018-07-09T11:39:13.610Z,27.28
2018-07-09T11:40:12.966Z,26.89
2018-07-09T11:41:12.940Z,27.08
2018-07-09T11:42:13.121Z,26.61
2018-07-09T11:43:13.127Z,26.80
2018-07-09T11:44:13.534Z,26.31
2018-07-09T11:45:13.673Z,26.90
2018-07-09T11:46:14.026Z,27.00
2018-07-09T11:47:13.999Z,26.41
2018-07-09T11:48:14.051Z,26.50
2018-07-09T11:49:14.288Z,28.44
2018-07-09T11:50:14.545Z,28.54
2018-07-09T11:51:14.559Z,28.15
2018-07-09T11:52:14.520Z,28.15
2018-07-09T11:53:15.296Z,28.05
2018-07-09T11:54:15.267Z,27.28
2018-07-09T11:55:15.463Z,27.37
2018-07-09T11:56:15.627Z,28.54
2018-07-09T11:57:15.805Z,28.14
2018-07-09T11:58:15.640Z,28.43
2018-07-09T11:59:15.844Z,28.72
2018-07-09T12:00:16.253Z,28.72
2018-07-09T12:01:16.267Z,29.21
2018-07-09T12:02:16.444Z,29.50
2018-07-09T12:03:16.638Z,29.30
2018-07-09T12:04:16.832Z,29.71
2018-07-09T12:05:17.023Z,29.22
2018-07-09T12:06:19.951Z,28.64
2018-07-09T12:07:17.436Z,29.21
2018-07-09T12:08:18.107Z,29.69
2018-07-09T12:09:17.787Z,28.82
2018-07-09T12:10:17.963Z,29.30
2018-07-09T12:11:18.208Z,29.50
2018-07-09T12:12:19.419Z,28.83
2018-07-09T12:13:18.582Z,28.64
2018-07-09T12:14:18.776Z,29.30
2018-07-09T12:15:18.980Z,29.40
2018-07-09T12:16:19.170Z,29.60
2018-07-09T12:17:19.364Z,29.69
2018-07-09T12:18:19.582Z,29.81
2018-07-09T12:19:19.809Z,29.71
2018-07-09T12:20:20.020Z,30.00
2018-07-09T12:21:20.203Z,29.79
2018-07-09T12:22:20.396Z,29.79
2018-07-09T12:23:20.567Z,30.38
2018-07-09T12:24:20.803Z,31.16
2018-07-09T12:25:20.926Z,31.25
2018-07-09T12:26:20.969Z,30.87
2018-07-09T12:27:21.196Z,30.57
2018-07-09T12:28:21.447Z,30.47
2018-07-09T12:29:21.507Z,30.47
2018-07-09T12:30:21.706Z,30.96
2018-07-09T12:31:21.900Z,30.96
2018-07-09T12:32:22.126Z,31.35
2018-07-09T12:33:22.277Z,30.77
2018-07-09T12:34:22.478Z,30.77
2018-07-09T12:35:22.682Z,30.38
2018-07-09T12:36:22.941Z,30.58
2018-07-09T12:37:23.047Z,30.78
2018-07-09T12:38:23.242Z,31.07
2018-07-09T12:39:23.481Z,30.98
2018-07-09T12:40:23.676Z,30.78
2018-07-09T12:41:23.861Z,30.88
2018-07-09T12:42:24.056Z,31.28
2018-07-09T12:43:24.246Z,30.78
2018-07-09T12:44:24.430Z,30.99
2018-07-09T12:45:24.621Z,30.99
2018-07-09T12:46:24.884Z,30.88
2018-07-09T12:47:25.039Z,31.07
2018-07-09T12:48:25.238Z,31.66
2018-07-09T12:49:25.433Z,32.24
2018-07-09T12:50:25.620Z,32.71
2018-07-09T12:51:25.803Z,33.11
2018-07-09T12:52:25.999Z,32.03
2018-07-09T12:53:26.202Z,31.93
2018-07-09T12:54:26.772Z,31.35